Time;durP1;ratioP1;P1;durP2;ratioP2;P2;SDS_P1;SDS_P2;PMS_P1;PMS_P2;Temp;Humidity;BMP_temperature;BMP_pressure;BME280_temperature;BME280_humidity;BME280_pressure;Samples;Min_cycle;Max_cycle;Signal;HPM_P1;HPM_P2
2023/10/19 00:01:53;;;;;;;59.20;41.78;;;;;;;9.88;83.20;96747.47;5053752;28;20032;-70
2023/10/19 00:04:19;;;;;;;61.55;39.88;;;;;;;9.89;83.21;96752.59;5053293;28;20020;-72
2023/10/19 00:06:48;;;;;;;60.70;42.50;;;;;;;9.91;83.16;96749.63;5070014;28;20471;-71
2023/10/19 00:09:15;;;;;;;71.10;47.30;;;;;;;9.91;83.30;96739.69;5093507;28;20047;-72
2023/10/19 00:11:40;;;;;;;67.18;43.08;;;;;;;9.94;83.59;96746.41;5047839;28;20036;-72
2023/10/19 00:14:15;;;;;;;64.43;42.65;;;;;;;9.90;83.18;96746.13;5062958;28;20071;-72
2023/10/19 00:16:44;;;;;;;54.97;40.38;;;;;;;9.89;83.63;96746.41;5067459;28;20032;-70
2023/10/19 00:19:09;;;;;;;70.57;46.20;;;;;;;9.86;83.71;96737.00;5060378;28;20571;-70
2023/10/19 00:21:50;;;;;;;71.53;45.42;;;;;;;9.81;83.69;96731.66;5081963;28;20127;-70
2023/10/19 00:24:16;;;;;;;79.13;46.97;;;;;;;9.87;84.05;96743.19;5093389;28;20032;-69
2023/10/19 00:26:43;;;;;;;76.78;48.47;;;;;;;9.86;84.21;96746.97;5093026;28;20078;-70
2023/10/19 00:29:30;;;;;;;69.22;43.42;;;;;;;9.84;84.18;96749.13;5055996;28;20036;-69
2023/10/19 00:32:00;;;;;;;76.68;47.65;;;;;;;9.81;84.12;96728.16;5072213;28;20055;-70
2023/10/19 00:34:28;;;;;;;68.45;45.05;;;;;;;9.82;84.42;96730.59;5055830;28;20036;-70
2023/10/19 00:36:55;;;;;;;85.10;51.97;;;;;;;9.90;84.00;96731.88;5036059;28;20067;-69
2023/10/19 00:39:21;;;;;;;91.70;51.00;;;;;;;9.94;84.21;96732.97;5054787;28;20415;-71
2023/10/19 00:41:47;;;;;;;80.80;49.60;;;;;;;9.90;84.22;96719.25;5067496;28;20020;-71
2023/10/19 00:44:16;;;;;;;71.10;47.65;;;;;;;9.97;84.66;96721.63;5051517;28;20032;-72
2023/10/19 00:49:09;;;;;;;62.45;42.17;;;;;;;10.01;84.31;96703.88;5046181;28;20043;-71
2023/10/19 00:51:53;;;;;;;62.58;42.92;;;;;;;9.99;84.66;96687.22;5059701;28;20025;-69
2023/10/19 00:54:37;;;;;;;54.25;38.60;;;;;;;9.98;84.30;96685.59;5051397;28;20032;-70
2023/10/19 00:57:09;;;;;;;51.88;37.75;;;;;;;10.01;84.63;96688.53;5032021;28;20055;-71
2023/10/19 00:59:43;;;;;;;46.95;35.88;;;;;;;9.99;84.38;96676.47;5058634;28;20036;-70
2023/10/19 01:02:28;;;;;;;50.45;36.70;;;;;;;9.96;84.54;96677.00;5059129;28;20537;-71
2023/10/19 01:05:07;;;;;;;55.13;39.78;;;;;;;10.00;84.10;96683.44;5055356;28;20131;-70
2023/10/19 01:07:44;;;;;;;49.05;38.50;;;;;;;9.98;83.95;96685.59;5035905;28;20037;-71
2023/10/19 01:10:19;;;;;;;51.25;37.25;;;;;;;9.95;83.92;96680.75;5043610;28;20112;-70
2023/10/19 01:12:44;;;;;;;48.85;37.90;;;;;;;9.91;84.05;96677.03;5037951;28;20061;-70
2023/10/19 01:15:16;;;;;;;53.53;39.95;;;;;;;10.00;83.62;96676.19;5054046;28;20415;-70
2023/10/19 01:17:45;;;;;;;52.28;38.70;;;;;;;10.03;83.55;96666.75;5054314;28;20174;-70
2023/10/19 01:20:20;;;;;;;51.95;38.95;;;;;;;10.04;83.44;96657.59;5063357;28;20040;-70
2023/10/19 01:25:49;;;;;;;57.10;40.88;;;;;;;9.94;83.48;96647.69;5066094;28;20043;-70
2023/10/19 01:28:18;;;;;;;57.75;42.92;;;;;;;9.92;83.70;96644.47;5053551;28;20093;-69
2023/10/19 01:30:45;;;;;;;58.28;42.95;;;;;;;9.91;83.79;96663.59;5033824;28;20021;-70
2023/10/19 01:33:15;;;;;;;57.30;42.97;;;;;;;9.90;84.24;96673.53;5044479;28;20074;-70
2023/10/19 01:38:30;;;;;;;56.22;41.13;;;;;;;9.77;84.58;96636.50;5054118;28;20047;-71
2023/10/19 01:40:59;;;;;;;57.42;40.97;;;;;;;9.94;84.47;96642.31;5074253;28;20395;-70
2023/10/19 01:43:25;;;;;;;69.10;47.25;;;;;;;10.00;84.51;96629.66;5091304;28;20729;-70
2023/10/19 01:45:54;;;;;;;98.30;54.40;;;;;;;9.91;84.42;96609.81;5058410;28;20063;-69
2023/10/19 01:48:22;;;;;;;81.43;49.30;;;;;;;10.02;84.56;96622.91;5056763;28;20502;-70
2023/10/19 01:50:50;;;;;;;68.65;46.65;;;;;;;9.94;84.31;96615.41;5056972;28;20035;-70
2023/10/19 01:53:17;;;;;;;61.75;45.20;;;;;;;10.03;84.82;96612.97;5058699;28;20077;-70
2023/10/19 01:55:44;;;;;;;69.43;47.90;;;;;;;10.06;84.64;96609.72;5033954;28;20033;-70
2023/10/19 01:58:10;;;;;;;69.72;48.20;;;;;;;10.09;84.98;96604.56;5032975;28;20105;-71
2023/10/19 02:00:37;;;;;;;105.82;57.80;;;;;;;10.10;85.12;96605.38;5033379;28;20080;-70
2023/10/19 02:03:11;;;;;;;59.25;42.38;;;;;;;10.10;84.93;96613.44;5037316;28;20021;-70
2023/10/19 02:05:41;;;;;;;58.47;41.88;;;;;;;10.05;85.38;96622.34;5051466;28;20028;-70
2023/10/19 02:08:09;;;;;;;58.30;42.45;;;;;;;9.95;85.51;96637.75;5071723;28;20481;-70
2023/10/19 02:10:41;;;;;;;69.43;46.33;;;;;;;9.95;85.93;96643.13;5082897;28;20035;-71
2023/10/19 02:13:08;;;;;;;60.20;42.03;;;;;;;9.94;85.88;96630.78;5039693;28;20036;-70
2023/10/19 02:15:37;;;;;;;70.68;47.22;;;;;;;10.01;85.81;96625.88;5034923;28;20017;-70
2023/10/19 02:18:03;;;;;;;66.97;45.92;;;;;;;9.96;85.61;96612.47;5033571;28;20053;-69
2023/10/19 02:20:31;;;;;;;67.15;47.42;;;;;;;9.97;85.95;96619.44;5064262;28;20027;-70
2023/10/19 02:23:03;;;;;;;69.13;47.63;;;;;;;9.95;86.33;96621.59;5034566;28;20037;-71
2023/10/19 02:25:33;;;;;;;74.75;49.45;;;;;;;9.96;86.28;96623.22;5047979;28;20127;-70
2023/10/19 02:27:59;;;;;;;63.28;43.78;;;;;;;9.87;86.19;96603.38;5052932;28;20119;-72
2023/10/19 02:30:25;;;;;;;66.47;44.83;;;;;;;9.98;86.10;96616.50;5071856;28;20058;-71
2023/10/19 02:32:51;;;;;;;76.28;48.47;;;;;;;9.97;86.26;96592.53;5054523;28;20040;-72
2023/10/19 02:35:18;;;;;;;82.90;51.28;;;;;;;10.05;86.23;96597.34;5072391;28;20403;-72
2023/10/19 02:37:44;;;;;;;76.25;49.20;;;;;;;10.11;86.12;96604.28;5071969;28;20036;-71
2023/10/19 02:40:19;;;;;;;80.55;50.05;;;;;;;10.12;86.36;96595.16;5071959;28;20767;-70
2023/10/19 02:42:53;;;;;;;59.30;43.03;;;;;;;10.07;86.38;96603.25;5048432;28;20071;-71
2023/10/19 02:45:23;;;;;;;62.85;43.83;;;;;;;10.07;86.65;96587.09;5044064;28;20055;-71
2023/10/19 02:47:50;;;;;;;72.10;48.63;;;;;;;9.90;87.02;96592.06;5074075;28;20071;-71
2023/10/19 02:50:16;;;;;;;69.30;47.08;;;;;;;9.86;87.23;96572.19;5074350;28;20079;-71
2023/10/19 02:52:45;;;;;;;65.78;45.38;;;;;;;10.01;86.77;96593.63;5057666;28;20024;-70
2023/10/19 02:55:16;;;;;;;68.40;46.55;;;;;;;9.99;86.92;96598.47;5032719;28;20397;-70
2023/10/19 02:57:46;;;;;;;75.22;48.92;;;;;;;9.97;87.10;96577.22;5037105;28;20024;-69
2023/10/19 03:00:20;;;;;;;75.90;48.15;;;;;;;9.95;87.02;96567.81;5061610;28;20075;-70
2023/10/19 03:02:48;;;;;;;74.55;49.13;;;;;;;9.89;87.71;96563.56;5069386;28;20110;-70
2023/10/19 03:05:14;;;;;;;63.25;44.80;;;;;;;9.93;87.32;96553.84;5037846;28;20024;-71
2023/10/19 03:07:43;;;;;;;61.25;44.03;;;;;;;9.94;87.23;96544.72;5077379;28;20687;-71
2023/10/19 03:10:22;;;;;;;69.32;47.28;;;;;;;9.96;87.41;96558.69;5095388;28;20138;-71
2023/10/19 03:12:49;;;;;;;73.85;48.38;;;;;;;9.91;87.48;96550.66;5032661;28;20166;-71
2023/10/19 03:15:15;;;;;;;68.95;46.28;;;;;;;9.90;87.27;96541.78;5084598;28;20387;-71
2023/10/19 03:17:41;;;;;;;72.82;48.78;;;;;;;9.97;87.45;96554.91;5070309;28;20063;-72
2023/10/19 03:20:07;;;;;;;93.22;54.33;;;;;;;9.93;87.79;96548.47;5074728;28;20529;-71
2023/10/19 03:22:33;;;;;;;90.63;53.83;;;;;;;9.92;88.10;96549.59;5079264;28;20106;-71
2023/10/19 03:25:14;;;;;;;80.00;50.20;;;;;;;9.97;87.94;96544.13;5084321;28;20107;-70
2023/10/19 03:27:44;;;;;;;69.20;47.40;;;;;;;10.00;88.01;96532.84;5053248;28;20037;-71
2023/10/19 03:30:15;;;;;;;81.50;52.00;;;;;;;10.03;87.87;96533.09;5088019;28;20067;-71
2023/10/19 03:32:41;;;;;;;86.85;53.80;;;;;;;10.12;87.89;96536.00;5077542;28;20399;-72
2023/10/19 03:35:07;;;;;;;72.35;48.05;;;;;;;10.12;88.06;96525.25;5074551;28;20020;-70
2023/10/19 03:37:35;;;;;;;70.30;47.83;;;;;;;10.16;87.85;96535.16;5036414;28;20453;-70
2023/10/19 03:40:06;;;;;;;70.45;47.08;;;;;;;10.19;87.92;96525.72;5068221;28;20424;-71
2023/10/19 03:42:32;;;;;;;67.20;45.92;;;;;;;10.25;87.83;96529.94;5075702;28;20029;-71
2023/10/19 03:44:59;;;;;;;70.60;45.30;;;;;;;10.22;88.00;96514.41;5038062;28;20028;-71
2023/10/19 03:47:26;;;;;;;65.43;46.47;;;;;;;10.30;88.07;96516.47;5056380;28;20040;-70
2023/10/19 03:49:52;;;;;;;64.45;46.50;;;;;;;10.34;88.04;96512.09;5073661;28;20024;-69
2023/10/19 03:54:43;;;;;;;67.65;46.35;;;;;;;10.28;88.08;96486.34;5053846;28;20109;-71
2023/10/19 03:57:12;;;;;;;62.83;45.05;;;;;;;10.30;88.53;96481.47;5058753;28;20089;-71
2023/10/19 03:59:41;;;;;;;62.65;44.47;;;;;;;10.38;88.35;96475.50;5093399;28;20020;-69
2023/10/19 04:02:13;;;;;;;64.53;45.00;;;;;;;10.36;88.91;96472.28;5074767;28;20090;-69
2023/10/19 04:04:43;;;;;;;59.08;42.78;;;;;;;10.38;89.10;96470.13;5076032;28;20034;-70
2023/10/19 04:07:20;;;;;;;57.75;40.95;;;;;;;10.43;88.86;96467.38;5092851;28;21166;-70
2023/10/19 04:09:58;;;;;;;57.25;41.70;;;;;;;10.38;88.78;96451.28;5087142;28;20043;-70
2023/10/19 04:12:24;;;;;;;62.85;44.08;;;;;;;10.50;89.00;96462.44;5072834;28;20043;-70
2023/10/19 04:14:50;;;;;;;59.70;40.80;;;;;;;10.47;88.97;96459.50;5054869;28;20480;-69
2023/10/19 04:17:16;;;;;;;57.85;41.65;;;;;;;10.54;89.06;96450.03;5077234;28;20035;-70
2023/10/19 04:19:41;;;;;;;70.35;49.45;;;;;;;10.55;88.98;96442.75;5054883;28;20032;-69
2023/10/19 04:22:11;;;;;;;79.47;56.33;;;;;;;10.60;88.91;96435.41;5072411;28;20040;-70
2023/10/19 04:24:36;;;;;;;405.10;283.70;;;;;;;10.66;88.47;96438.84;5092895;28;20382;-69
2023/10/19 04:27:01;;;;;;;68.07;45.70;;;;;;;10.66;88.83;96434.25;5092778;28;20044;-69
2023/10/19 04:29:27;;;;;;;59.30;43.40;;;;;;;10.64;88.81;96431.03;5061821;28;20024;-70
2023/10/19 04:31:56;;;;;;;64.22;44.83;;;;;;;10.67;89.38;96432.34;5092364;28;20036;-70
2023/10/19 04:34:21;;;;;;;59.88;42.58;;;;;;;10.70;89.04;96429.91;5092745;28;20502;-70
2023/10/19 04:36:52;;;;;;;67.65;44.78;;;;;;;10.75;89.13;96427.16;5043889;28;20107;-71
2023/10/19 04:39:19;;;;;;;61.17;42.78;;;;;;;10.77;89.05;96424.97;5072201;28;20123;-69
2023/10/19 04:41:45;;;;;;;65.15;45.80;;;;;;;10.85;89.15;96420.84;5071655;28;20487;-68
2023/10/19 04:44:10;;;;;;;64.05;43.15;;;;;;;10.86;88.98;96417.84;5080302;28;20040;-70
2023/10/19 04:46:36;;;;;;;60.65;43.15;;;;;;;10.86;89.45;96417.03;5046947;28;20025;-69
2023/10/19 04:49:03;;;;;;;61.55;43.45;;;;;;;10.83;89.63;96413.03;5086528;22;20512;-69
2023/10/19 04:51:28;;;;;;;58.28;43.30;;;;;;;10.91;89.58;96419.66;5046528;28;20028;-68
2023/10/19 04:53:55;;;;;;;61.90;45.58;;;;;;;10.93;89.56;96428.25;5009904;28;20405;-68
2023/10/19 04:56:20;;;;;;;61.95;43.05;;;;;;;10.95;89.58;96429.56;5009564;28;20024;-68
2023/10/19 04:58:47;;;;;;;71.22;49.15;;;;;;;10.88;89.60;96410.28;5045822;28;20038;-69
2023/10/19 05:01:12;;;;;;;64.90;46.28;;;;;;;10.92;89.86;96411.28;4989445;28;20026;-69
2023/10/19 05:03:38;;;;;;;87.55;74.13;;;;;;;10.98;89.26;96420.91;4989728;28;20049;-68
2023/10/19 05:06:03;;;;;;;67.60;47.10;;;;;;;10.87;89.32;96397.91;4994559;28;20434;-69
2023/10/19 05:08:29;;;;;;;84.50;54.90;;;;;;;11.01;89.90;96420.34;5071711;28;20086;-69
2023/10/19 05:10:55;;;;;;;106.18;65.30;;;;;;;11.03;89.88;96417.34;4989349;28;20026;-69
2023/10/19 05:13:25;;;;;;;101.90;65.18;;;;;;;11.03;89.52;96418.16;5056395;28;20535;-69
2023/10/19 05:15:52;;;;;;;86.07;57.15;;;;;;;11.01;89.87;96425.72;5055726;28;20030;-69
2023/10/19 05:18:18;;;;;;;94.22;56.13;;;;;;;10.99;89.89;96417.13;5022405;28;20024;-69
2023/10/19 05:20:43;;;;;;;81.65;53.72;;;;;;;11.02;89.93;96416.53;4989154;28;20112;-67
2023/10/19 05:23:09;;;;;;;76.75;50.00;;;;;;;11.05;89.70;96420.56;4989644;28;20030;-68
2023/10/19 05:25:36;;;;;;;81.03;51.25;;;;;;;11.01;90.07;96423.03;5056614;28;20046;-70
2023/10/19 05:28:04;;;;;;;78.22;52.75;;;;;;;11.08;89.69;96425.38;5056627;28;20113;-69
2023/10/19 05:30:29;;;;;;;85.80;57.47;;;;;;;11.10;89.77;96434.75;4989119;28;20038;-72
2023/10/19 05:32:55;;;;;;;207.25;127.05;;;;;;;11.05;90.30;96434.84;5056123;28;20087;-70
2023/10/19 05:35:24;;;;;;;196.82;111.05;;;;;;;11.07;89.97;96431.84;4996970;28;20118;-70
2023/10/19 05:37:49;;;;;;;131.98;80.47;;;;;;;11.05;90.36;96442.91;5053882;28;20035;-69
2023/10/19 05:40:15;;;;;;;150.70;92.13;;;;;;;11.03;90.07;96439.72;5055953;28;20035;-69
2023/10/19 05:42:41;;;;;;;162.95;94.72;;;;;;;11.06;89.94;96433.72;5035248;28;20039;-70
2023/10/19 05:45:07;;;;;;;72.63;49.70;;;;;;;11.08;90.22;96436.16;5057535;28;20391;-70
2023/10/19 05:47:32;;;;;;;76.07;50.03;;;;;;;11.06;89.93;96433.72;4989336;28;20398;-71
2023/10/19 05:49:57;;;;;;;75.78;51.58;;;;;;;11.07;90.04;96429.94;5050495;28;20037;-69
2023/10/19 05:52:23;;;;;;;69.00;46.95;;;;;;;11.07;89.70;96431.84;5066200;28;20147;-69
2023/10/19 05:54:49;;;;;;;76.60;49.20;;;;;;;11.09;89.98;96441.22;4989153;28;20039;-69
2023/10/19 05:57:15;;;;;;;76.93;50.95;;;;;;;11.03;90.03;96425.44;4988974;28;20038;-70
2023/10/19 05:59:40;;;;;;;75.13;48.35;;;;;;;11.11;89.80;96447.13;5051549;28;20483;-69
2023/10/19 06:02:07;;;;;;;78.22;51.72;;;;;;;11.11;90.09;96444.44;5074292;28;20025;-69
2023/10/19 06:04:33;;;;;;;84.35;51.97;;;;;;;11.19;89.89;96442.19;5086566;28;20110;-70
2023/10/19 06:06:58;;;;;;;69.95;47.45;;;;;;;11.19;90.03;96442.19;5056236;28;20073;-69
2023/10/19 06:09:29;;;;;;;86.25;52.45;;;;;;;11.13;89.60;96421.81;4988785;28;20034;-70
2023/10/19 06:11:57;;;;;;;74.07;49.67;;;;;;;11.23;89.54;96443.19;5090250;28;20032;-70
2023/10/19 06:14:23;;;;;;;77.10;50.72;;;;;;;11.10;90.82;96440.16;5056494;28;20051;-69
2023/10/19 06:16:48;;;;;;;93.30;58.30;;;;;;;11.08;90.30;96431.53;5069843;28;20040;-70
2023/10/19 06:19:13;;;;;;;91.53;58.63;;;;;;;11.17;90.58;96449.75;5039165;28;20039;-70
2023/10/19 06:21:39;;;;;;;90.07;56.17;;;;;;;11.20;90.23;96450.00;5055517;28;20037;-69
2023/10/19 06:24:05;;;;;;;85.95;54.45;;;;;;;11.17;90.77;96455.16;5055828;28;20034;-69
2023/10/19 06:26:31;;;;;;;87.40;56.20;;;;;;;11.05;89.94;96431.31;4989009;28;20121;-69
2023/10/19 06:28:58;;;;;;;90.03;59.63;;;;;;;11.19;89.92;96458.34;4988938;28;20087;-71
2023/10/19 06:31:25;;;;;;;87.25;57.22;;;;;;;11.16;89.79;96453.53;5057011;28;20047;-70
2023/10/19 06:33:51;;;;;;;72.53;50.58;;;;;;;11.17;89.94;96465.91;5082014;28;20020;-69
2023/10/19 06:36:17;;;;;;;80.03;52.92;;;;;;;11.18;89.50;96457.53;5081554;28;20722;-70
2023/10/19 06:38:44;;;;;;;77.10;54.65;;;;;;;11.09;89.25;96432.34;5085672;28;20024;-69
2023/10/19 06:41:11;;;;;;;91.45;62.05;;;;;;;11.13;89.13;96434.16;5061273;28;20179;-71
2023/10/19 06:43:37;;;;;;;86.38;55.25;;;;;;;11.15;89.55;96447.38;5053299;28;20066;-69
2023/10/19 06:46:03;;;;;;;86.95;55.75;;;;;;;11.15;89.18;96446.56;5040528;28;20518;-69
2023/10/19 06:48:29;;;;;;;86.93;54.40;;;;;;;11.11;89.10;96438.25;5074072;28;20115;-70
2023/10/19 06:50:56;;;;;;;65.85;47.22;;;;;;;11.20;88.94;96449.19;5085107;28;20119;-70
2023/10/19 06:53:21;;;;;;;80.43;54.78;;;;;;;11.22;88.80;96449.69;5042661;28;20031;-72
2023/10/19 06:55:47;;;;;;;73.47;52.33;;;;;;;11.24;88.53;96451.00;5059041;28;20041;-70
2023/10/19 06:58:14;;;;;;;88.65;58.45;;;;;;;11.20;88.40;96441.09;5006562;28;20024;-70
2023/10/19 07:00:43;;;;;;;91.00;54.63;;;;;;;11.32;88.53;96449.56;5058370;28;20050;-71
2023/10/19 07:03:08;;;;;;;125.72;64.32;;;;;;;11.34;88.41;96455.44;5057615;28;20030;-70
2023/10/19 07:05:34;;;;;;;117.95;66.18;;;;;;;11.34;88.76;96455.44;5058902;28;20097;-70
2023/10/19 07:08:01;;;;;;;117.90;70.15;;;;;;;11.28;89.01;96443.94;5042304;28;20058;-70
2023/10/19 07:10:27;;;;;;;105.93;65.85;;;;;;;11.31;89.57;96450.63;4991332;28;20110;-70
2023/10/19 07:12:54;;;;;;;135.30;72.72;;;;;;;11.31;90.08;96456.84;5042290;28;20105;-70
2023/10/19 07:15:22;;;;;;;125.43;66.85;;;;;;;11.29;90.59;96453.63;4974320;28;20035;-71
2023/10/19 07:17:48;;;;;;;148.80;71.72;;;;;;;11.27;91.03;96446.94;4974264;28;20026;-71
2023/10/19 07:20:35;;;;;;;165.43;80.97;;;;;;;11.31;91.37;96462.22;5041971;28;20034;-70
2023/10/19 07:23:09;;;;;;;157.23;82.38;;;;;;;11.22;91.51;96444.31;5047854;28;20073;-70
2023/10/19 07:25:42;;;;;;;132.88;74.00;;;;;;;11.31;91.65;96456.03;5067608;28;20047;-70
2023/10/19 07:28:15;;;;;;;135.43;73.10;;;;;;;11.26;91.68;96435.34;5052609;28;20555;-71
2023/10/19 07:30:42;;;;;;;116.07;66.28;;;;;;;11.33;91.74;96427.69;5089532;28;20028;-70
2023/10/19 07:33:17;;;;;;;112.32;66.72;;;;;;;11.41;91.45;96428.94;5059745;28;20027;-70
2023/10/19 07:35:43;;;;;;;113.32;65.28;;;;;;;11.47;91.96;96422.34;5074205;28;20044;-71
2023/10/19 07:38:10;;;;;;;96.50;58.13;;;;;;;11.56;91.86;96431.38;5074001;28;20467;-70
2023/10/19 07:40:35;;;;;;;97.57;61.00;;;;;;;11.58;91.37;96429.19;5062301;28;20032;-70
2023/10/19 07:43:01;;;;;;;95.47;60.00;;;;;;;11.62;91.89;96414.81;5072754;28;20442;-70
2023/10/19 07:45:26;;;;;;;109.10;63.33;;;;;;;11.59;91.78;96399.25;5067760;28;20115;-70
2023/10/19 07:47:52;;;;;;;103.10;61.92;;;;;;;11.57;91.63;96396.06;5057741;28;20076;-70
2023/10/19 07:50:17;;;;;;;115.78;65.85;;;;;;;11.62;91.91;96408.66;5040969;28;20087;-71
2023/10/19 07:52:48;;;;;;;92.68;57.55;;;;;;;11.70;91.41;96405.28;4990975;28;20027;-72
2023/10/19 07:55:15;;;;;;;97.53;60.85;;;;;;;11.60;91.50;96384.66;5052013;28;20379;-70
2023/10/19 07:57:41;;;;;;;91.07;59.95;;;;;;;11.69;91.60;96414.50;5068038;28;20052;-72
2023/10/19 08:00:08;;;;;;;91.47;58.67;;;;;;;11.62;91.35;96404.03;5057663;28;20110;-72
2023/10/19 08:02:34;;;;;;;88.82;57.88;;;;;;;11.79;91.26;96414.31;5057557;28;20034;-70
2023/10/19 08:05:02;;;;;;;81.70;55.03;;;;;;;11.87;91.10;96393.97;4990746;28;20030;-70
2023/10/19 08:07:28;;;;;;;84.43;57.08;;;;;;;11.83;90.90;96391.06;5092960;28;20052;-70
2023/10/19 08:09:54;;;;;;;80.78;55.58;;;;;;;11.96;91.09;96413.75;5086387;28;20550;-71
2023/10/19 08:12:20;;;;;;;76.20;54.20;;;;;;;12.06;91.44;96416.28;5071219;28;20104;-70
2023/10/19 08:14:46;;;;;;;76.20;52.40;;;;;;;12.31;90.78;96400.44;5072413;28;20115;-71
2023/10/19 08:17:12;;;;;;;69.97;50.83;;;;;;;12.41;91.20;96402.94;5092879;28;20382;-71
2023/10/19 08:19:38;;;;;;;73.10;50.90;;;;;;;12.60;90.66;96413.66;5051956;28;20046;-70
2023/10/19 08:22:04;;;;;;;67.95;47.92;;;;;;;12.72;90.47;96416.63;4977129;28;20097;-70
2023/10/19 08:24:30;;;;;;;65.90;47.10;;;;;;;12.85;90.13;96423.13;4977542;28;20040;-70
2023/10/19 08:26:56;;;;;;;61.45;43.13;;;;;;;12.80;90.33;96418.63;4977468;28;20117;-71
2023/10/19 08:29:21;;;;;;;64.35;45.47;;;;;;;12.81;90.10;96414.03;4970740;28;20046;-70
2023/10/19 08:31:46;;;;;;;50.22;39.85;;;;;;;13.01;89.49;96419.00;4989918;28;20033;-70
2023/10/19 08:34:12;;;;;;;56.25;41.45;;;;;;;12.89;89.03;96405.19;5089895;28;20106;-70
2023/10/19 08:36:38;;;;;;;52.38;40.80;;;;;;;13.11;88.79;96418.81;5044378;28;20105;-70
2023/10/19 08:39:08;;;;;;;57.22;40.85;;;;;;;13.22;88.67;96416.66;5054235;28;20036;-71
2023/10/19 08:41:34;;;;;;;58.40;42.10;;;;;;;13.27;88.49;96425.47;5056622;28;20068;-71
2023/10/19 08:44:10;;;;;;;48.40;37.90;;;;;;;13.22;87.65;96416.66;5056975;28;20030;-72
2023/10/19 08:46:38;;;;;;;47.63;35.95;;;;;;;13.18;87.64;96396.75;5061719;28;20036;-70
2023/10/19 08:49:03;;;;;;;49.20;36.42;;;;;;;13.26;87.37;96412.25;5056863;28;20037;-70
2023/10/19 08:51:29;;;;;;;43.10;35.33;;;;;;;13.09;86.93;96385.88;5056608;28;20034;-70
2023/10/19 08:53:54;;;;;;;48.67;37.13;;;;;;;13.26;86.19;96399.53;4989871;28;20030;-71
2023/10/19 08:56:23;;;;;;;49.42;36.50;;;;;;;13.32;86.02;96417.25;5056902;28;20126;-71
2023/10/19 08:58:51;;;;;;;46.50;35.70;;;;;;;13.32;85.78;96419.16;5056676;28;20080;-71
2023/10/19 09:01:19;;;;;;;51.75;36.08;;;;;;;13.29;85.67;96417.84;4989435;28;20039;-70
2023/10/19 09:03:46;;;;;;;50.38;37.90;;;;;;;13.12;85.66;96401.47;5073752;28;20035;-70
2023/10/19 09:06:12;;;;;;;48.45;37.03;;;;;;;13.21;85.34;96407.75;5075788;28;20032;-70
2023/10/19 09:08:40;;;;;;;52.60;38.92;;;;;;;13.14;85.98;96396.56;5070494;28;20056;-71
2023/10/19 09:11:13;;;;;;;46.58;35.90;;;;;;;13.26;85.22;96398.72;5053307;28;20032;-70
2023/10/19 09:13:49;;;;;;;53.25;38.05;;;;;;;13.35;85.42;96397.69;5059028;28;20476;-71
2023/10/19 09:16:20;;;;;;;45.13;35.92;;;;;;;13.52;85.20;96397.84;5070413;28;20076;-71
2023/10/19 09:18:46;;;;;;;45.95;35.47;;;;;;;13.54;85.50;96395.63;5037299;28;20064;-71
2023/10/19 09:21:23;;;;;;;46.80;35.95;;;;;;;13.56;85.13;96388.00;5053627;28;20017;-70
2023/10/19 09:23:51;;;;;;;45.88;35.67;;;;;;;13.67;84.91;96392.09;5064199;28;20044;-70
2023/10/19 09:26:17;;;;;;;45.65;35.17;;;;;;;13.68;84.93;96384.75;5056627;28;20046;-72
2023/10/19 09:28:47;;;;;;;44.28;34.97;;;;;;;13.57;84.76;96389.63;5009932;28;20395;-71
2023/10/19 09:31:13;;;;;;;45.42;35.33;;;;;;;13.62;84.82;96397.59;5047018;28;20019;-70
2023/10/19 09:33:40;;;;;;;46.58;35.63;;;;;;;13.62;84.82;96386.78;5055893;28;20087;-71
2023/10/19 09:36:12;;;;;;;42.00;34.78;;;;;;;13.53;84.61;96388.63;5030143;28;20025;-70
2023/10/19 09:38:48;;;;;;;48.25;38.03;;;;;;;13.65;84.83;96402.38;5036209;28;20034;-70
2023/10/19 09:41:15;;;;;;;46.03;36.50;;;;;;;13.73;84.91;96398.94;5054407;28;20039;-70
2023/10/19 09:43:46;;;;;;;47.17;37.13;;;;;;;13.90;84.82;96402.88;5056281;28;20125;-70
2023/10/19 09:46:12;;;;;;;50.10;35.65;;;;;;;13.82;84.30;96402.50;5017553;28;20033;-72
2023/10/19 09:48:42;;;;;;;55.58;38.65;;;;;;;13.88;84.70;96401.25;5052944;28;20111;-71
2023/10/19 09:51:09;;;;;;;51.63;36.63;;;;;;;13.95;83.92;96395.44;5064749;28;20123;-70
2023/10/19 09:53:35;;;;;;;63.28;42.55;;;;;;;14.10;83.70;96399.63;5073305;28;20020;-70
2023/10/19 09:56:01;;;;;;;60.25;42.00;;;;;;;14.09;83.95;96404.28;5056767;28;20487;-71
2023/10/19 09:58:54;;;;;;;48.03;35.85;;;;;;;14.04;84.11;96406.31;5073286;28;20111;-70
2023/10/19 10:01:21;;;;;;;46.85;34.80;;;;;;;13.94;84.23;96398.44;5042135;28;20392;-72
2023/10/19 10:03:53;;;;;;;49.53;36.35;;;;;;;13.99;84.21;96411.84;5062235;28;20024;-70
2023/10/19 10:06:30;;;;;;;42.83;33.20;;;;;;;14.01;83.79;96399.59;5059549;28;20053;-70
2023/10/19 10:08:56;;;;;;;41.95;33.88;;;;;;;14.21;83.67;96396.34;5077088;28;20644;-70
2023/10/19 10:11:26;;;;;;;45.30;32.47;;;;;;;14.39;83.28;96379.13;5094905;28;20027;-72
2023/10/19 10:13:53;;;;;;;41.38;31.42;;;;;;;14.63;82.63;96367.91;5077892;28;20126;-71
2023/10/19 10:16:21;;;;;;;41.88;32.92;;;;;;;14.88;82.35;96369.06;5077296;28;20024;-70
2023/10/19 10:18:48;;;;;;;41.58;31.90;;;;;;;14.81;82.22;96380.38;5073982;28;20032;-70
2023/10/19 10:21:20;;;;;;;40.35;30.67;;;;;;;14.89;81.80;96382.28;5059373;28;20401;-70
2023/10/19 10:23:53;;;;;;;45.75;33.50;;;;;;;14.92;81.21;96370.81;5059605;28;20042;-70
2023/10/19 10:26:26;;;;;;;43.05;32.65;;;;;;;14.81;81.26;96372.22;4992337;28;20049;-70
2023/10/19 10:29:11;;;;;;;38.95;31.08;;;;;;;14.92;81.05;96364.59;5057832;28;20125;-70
2023/10/19 10:31:42;;;;;;;36.80;29.65;;;;;;;15.01;80.83;96363.50;5059389;28;20034;-70
2023/10/19 10:34:12;;;;;;;39.42;29.58;;;;;;;15.04;80.72;96356.63;4974433;28;20041;-73
2023/10/19 10:37:05;;;;;;;35.78;27.92;;;;;;;15.13;80.09;96355.53;5017034;28;20177;-70
2023/10/19 10:39:31;;;;;;;34.67;28.10;;;;;;;15.43;80.07;96351.06;4979839;28;20042;-71
2023/10/19 10:42:02;;;;;;;34.28;27.83;;;;;;;15.38;79.17;96331.44;5076124;28;20085;-71
2023/10/19 10:44:41;;;;;;;35.05;27.23;;;;;;;15.48;78.93;96339.28;5042312;28;20055;-72
2023/10/19 10:47:24;;;;;;;33.15;27.98;;;;;;;15.50;78.97;96340.56;5061115;28;20387;-72
2023/10/19 10:49:53;;;;;;;32.25;26.02;;;;;;;15.53;78.79;96336.41;5137062;22;20044;-71
2023/10/19 10:52:33;;;;;;;33.72;25.92;;;;;;;15.50;78.09;96312.63;5096396;28;20027;-71
2023/10/19 10:55:10;;;;;;;31.73;25.60;;;;;;;15.54;78.24;96330.63;5088167;28;20050;-71
2023/10/19 10:57:36;;;;;;;33.63;26.13;;;;;;;15.62;78.00;96329.03;5082797;28;20431;-71
2023/10/19 11:00:15;;;;;;;31.35;25.08;;;;;;;15.66;77.35;96319.16;5068000;28;20044;-71
2023/10/19 11:02:45;;;;;;;29.58;23.98;;;;;;;15.70;77.95;96326.34;5051412;28;20029;-71
2023/10/19 11:05:12;;;;;;;29.65;24.60;;;;;;;15.75;77.65;96326.13;5067954;28;20526;-71
2023/10/19 11:07:39;;;;;;;29.42;24.38;;;;;;;15.83;77.49;96329.97;5056297;28;20029;-70
2023/10/19 11:10:04;;;;;;;28.65;24.60;;;;;;;15.93;77.43;96331.53;5049978;28;20043;-71
2023/10/19 11:12:31;;;;;;;29.35;22.90;;;;;;;15.92;77.58;96322.59;5037973;28;20025;-71
2023/10/19 11:15:05;;;;;;;31.20;24.55;;;;;;;15.97;77.36;96333.28;5050463;28;20048;-71
2023/10/19 11:17:31;;;;;;;28.95;24.73;;;;;;;15.94;77.03;96319.56;5042401;28;20536;-71
2023/10/19 11:19:57;;;;;;;29.70;23.95;;;;;;;16.01;77.32;96315.19;5052521;28;20426;-71
2023/10/19 11:22:26;;;;;;;29.50;23.55;;;;;;;16.07;77.25;96292.19;5039965;28;20086;-71
2023/10/19 11:24:56;;;;;;;26.10;22.35;;;;;;;16.29;77.20;96299.28;5061146;28;20028;-71
2023/10/19 11:27:28;;;;;;;30.08;23.25;;;;;;;16.59;76.53;96303.66;5055921;28;20028;-71
2023/10/19 11:29:58;;;;;;;28.35;22.50;;;;;;;16.83;76.31;96303.00;5051091;28;20048;-71
2023/10/19 11:32:25;;;;;;;27.65;22.10;;;;;;;16.84;75.98;96305.41;5040501;28;20032;-71
2023/10/19 11:34:52;;;;;;;25.63;21.02;;;;;;;16.92;75.92;96284.72;5044123;28;20032;-71